sensor_id;sensor_type;location;lat;lon;timestamp;pressure;altitude;pressure_sealevel;temperature;humidity
75891;BME280;64571;47.512;19.054;2023-12-04T00:02:06;101444.00;;;-1.72;77.31
75891;BME280;64571;47.512;19.054;2023-12-04T00:05:08;101435.09;;;-1.81;77.36
75891;BME280;64571;47.512;19.054;2023-12-04T00:08:11;101421.72;;;-1.76;77.68
75891;BME280;64571;47.512;19.054;2023-12-04T00:11:14;101423.72;;;-1.70;77.95
75891;BME280;64571;47.512;19.054;2023-12-04T00:14:16;101417.22;;;-1.69;78.12
75891;BME280;64571;47.512;19.054;2023-12-04T00:17:19;101428.47;;;-1.72;77.74
75891;BME280;64571;47.512;19.054;2023-12-04T00:20:21;101423.50;;;-1.68;77.85
75891;BME280;64571;47.512;19.054;2023-12-04T00:23:24;101427.28;;;-1.69;77.94
75891;BME280;64571;47.512;19.054;2023-12-04T00:26:26;101409.09;;;-1.84;77.79
75891;BME280;64571;47.512;19.054;2023-12-04T00:29:29;101441.25;;;-1.72;77.55
75891;BME280;64571;47.512;19.054;2023-12-04T00:32:32;101428.47;;;-1.72;77.94
75891;BME280;64571;47.512;19.054;2023-12-04T00:35:34;101432.34;;;-1.66;78.02
75891;BME280;64571;47.512;19.054;2023-12-04T00:38:37;101442.03;;;-1.79;77.57
75891;BME280;64571;47.512;19.054;2023-12-04T00:41:40;101416.31;;;-1.91;77.60
75891;BME280;64571;47.512;19.054;2023-12-04T00:44:42;101400.09;;;-1.99;77.91
75891;BME280;64571;47.512;19.054;2023-12-04T00:47:44;101412.13;;;-1.93;78.57
75891;BME280;64571;47.512;19.054;2023-12-04T00:50:47;101436.97;;;-1.82;78.50
75891;BME280;64571;47.512;19.054;2023-12-04T00:53:49;101416.91;;;-1.95;78.67
75891;BME280;64571;47.512;19.054;2023-12-04T00:56:52;101443.47;;;-1.83;78.61
75891;BME280;64571;47.512;19.054;2023-12-04T00:59:54;101450.13;;;-1.85;78.46
75891;BME280;64571;47.512;19.054;2023-12-04T01:02:57;101446.38;;;-1.84;78.78
75891;BME280;64571;47.512;19.054;2023-12-04T01:06:00;101438.38;;;-1.86;77.99
75891;BME280;64571;47.512;19.054;2023-12-04T01:09:02;101439.16;;;-1.92;77.92
75891;BME280;64571;47.512;19.054;2023-12-04T01:12:05;101432.88;;;-1.92;78.18
75891;BME280;64571;47.512;19.054;2023-12-04T01:15:08;101414.09;;;-2.02;78.23
75891;BME280;64571;47.512;19.054;2023-12-04T01:18:11;101427.41;;;-1.92;78.03
75891;BME280;64571;47.512;19.054;2023-12-04T01:21:14;101437.91;;;-1.89;78.26
75891;BME280;64571;47.512;19.054;2023-12-04T01:24:17;101425.72;;;-1.93;78.02
75891;BME280;64571;47.512;19.054;2023-12-04T01:27:19;101415.97;;;-2.02;78.41
75891;BME280;64571;47.512;19.054;2023-12-04T01:30:22;101433.13;;;-1.87;78.30
75891;BME280;64571;47.512;19.054;2023-12-04T01:33:24;101441.88;;;-1.92;78.08
75891;BME280;64571;47.512;19.054;2023-12-04T01:36:27;101440.47;;;-1.88;78.68
75891;BME280;64571;47.512;19.054;2023-12-04T01:39:29;101439.72;;;-1.96;78.41
75891;BME280;64571;47.512;19.054;2023-12-04T01:42:33;101423.41;;;-2.11;78.18
75891;BME280;64571;47.512;19.054;2023-12-04T01:45:35;101444.97;;;-1.95;78.55
75891;BME280;64571;47.512;19.054;2023-12-04T01:48:38;101442.91;;;-1.93;78.86
75891;BME280;64571;47.512;19.054;2023-12-04T01:51:42;101446.50;;;-2.07;79.20
75891;BME280;64571;47.512;19.054;2023-12-04T01:54:45;101448.19;;;-2.06;80.13
75891;BME280;64571;47.512;19.054;2023-12-04T01:57:48;101452.12;;;-2.23;80.90
75891;BME280;64571;47.512;19.054;2023-12-04T02:00:50;101432.50;;;-2.48;81.41
75891;BME280;64571;47.512;19.054;2023-12-04T02:03:54;101452.22;;;-2.46;81.55
75891;BME280;64571;47.512;19.054;2023-12-04T02:06:56;101451.53;;;-2.48;81.62
75891;BME280;64571;47.512;19.054;2023-12-04T02:09:59;101456.44;;;-2.44;81.75
75891;BME280;64571;47.512;19.054;2023-12-04T02:13:02;101449.22;;;-2.37;82.00
75891;BME280;64571;47.512;19.054;2023-12-04T02:16:09;101439.47;;;-2.31;81.99
75891;BME280;64571;47.512;19.054;2023-12-04T02:19:12;101430.56;;;-2.25;81.29
75891;BME280;64571;47.512;19.054;2023-12-04T02:22:15;101451.94;;;-2.07;80.81
75891;BME280;64571;47.512;19.054;2023-12-04T02:25:20;101456.72;;;-2.09;80.53
75891;BME280;64571;47.512;19.054;2023-12-04T02:28:37;101454.56;;;-2.14;81.24
75891;BME280;64571;47.512;19.054;2023-12-04T02:31:41;101454.59;;;-2.28;81.11
75891;BME280;64571;47.512;19.054;2023-12-04T02:34:45;101431.78;;;-2.42;80.68
75891;BME280;64571;47.512;19.054;2023-12-04T02:37:49;101428.75;;;-2.33;80.75
75891;BME280;64571;47.512;19.054;2023-12-04T02:40:53;101447.25;;;-2.13;80.99
75891;BME280;64571;47.512;19.054;2023-12-04T02:43:56;101435.81;;;-2.23;80.54
75891;BME280;64571;47.512;19.054;2023-12-04T02:46:58;101454.47;;;-2.06;80.19
75891;BME280;64571;47.512;19.054;2023-12-04T02:50:00;101449.22;;;-2.07;79.47
75891;BME280;64571;47.512;19.054;2023-12-04T02:53:03;101429.13;;;-2.21;80.60
75891;BME280;64571;47.512;19.054;2023-12-04T02:56:06;101453.25;;;-2.03;80.55
75891;BME280;64571;47.512;19.054;2023-12-04T02:59:09;101431.56;;;-2.11;80.91
75891;BME280;64571;47.512;19.054;2023-12-04T03:02:11;101455.69;;;-2.08;81.14
75891;BME280;64571;47.512;19.054;2023-12-04T03:05:14;101446.50;;;-2.37;80.69
75891;BME280;64571;47.512;19.054;2023-12-04T03:08:16;101472.50;;;-2.34;81.20
75891;BME280;64571;47.512;19.054;2023-12-04T03:11:19;101464.50;;;-2.36;81.30
75891;BME280;64571;47.512;19.054;2023-12-04T03:14:21;101452.22;;;-2.46;81.73
75891;BME280;64571;47.512;19.054;2023-12-04T03:17:24;101475.75;;;-2.39;82.10
75891;BME280;64571;47.512;19.054;2023-12-04T03:20:27;101468.72;;;-2.48;81.42
75891;BME280;64571;47.512;19.054;2023-12-04T03:23:30;101470.59;;;-2.48;80.87
75891;BME280;64571;47.512;19.054;2023-12-04T03:26:32;101466.12;;;-2.41;80.52
75891;BME280;64571;47.512;19.054;2023-12-04T03:29:34;101446.87;;;-2.55;80.44
75891;BME280;64571;47.512;19.054;2023-12-04T03:32:37;101469.31;;;-2.38;80.04
75891;BME280;64571;47.512;19.054;2023-12-04T03:35:40;101473.03;;;-2.39;79.85
75891;BME280;64571;47.512;19.054;2023-12-04T03:38:42;101472.31;;;-2.33;80.02
75891;BME280;64571;47.512;19.054;2023-12-04T03:41:45;101480.47;;;-2.33;80.51
75891;BME280;64571;47.512;19.054;2023-12-04T03:44:48;101479.25;;;-2.30;81.19
75891;BME280;64571;47.512;19.054;2023-12-04T03:47:51;101477.00;;;-2.26;81.43
75891;BME280;64571;47.512;19.054;2023-12-04T03:50:54;101483.84;;;-2.31;81.56
75891;BME280;64571;47.512;19.054;2023-12-04T03:53:56;101461.44;;;-2.47;81.72
75891;BME280;64571;47.512;19.054;2023-12-04T03:56:59;101493.22;;;-2.48;81.08
75891;BME280;64571;47.512;19.054;2023-12-04T04:00:01;101489.28;;;-2.60;80.82
75891;BME280;64571;47.512;19.054;2023-12-04T04:03:12;101456.84;;;-2.85;80.28
75891;BME280;64571;47.512;19.054;2023-12-04T04:06:15;101468.91;;;-2.64;80.13
75891;BME280;64571;47.512;19.054;2023-12-04T04:09:17;101464.56;;;-2.73;79.80
75891;BME280;64571;47.512;19.054;2023-12-04T04:12:22;101471.97;;;-2.67;79.84
75891;BME280;64571;47.512;19.054;2023-12-04T04:15:25;101467.44;;;-2.52;79.60
75891;BME280;64571;47.512;19.054;2023-12-04T04:18:28;101443.09;;;-2.68;79.29
75891;BME280;64571;47.512;19.054;2023-12-04T04:21:31;101466.00;;;-2.48;79.26
75891;BME280;64571;47.512;19.054;2023-12-04T04:24:34;101447.41;;;-2.59;79.25
75891;BME280;64571;47.512;19.054;2023-12-04T04:27:36;101468.63;;;-2.40;79.46
75891;BME280;64571;47.512;19.054;2023-12-04T04:30:39;101467.78;;;-2.40;79.38
75891;BME280;64571;47.512;19.054;2023-12-04T04:33:42;101452.59;;;-2.35;79.41
75891;BME280;64571;47.512;19.054;2023-12-04T04:36:45;101455.41;;;-2.28;79.34
75891;BME280;64571;47.512;19.054;2023-12-04T04:39:47;101460.66;;;-2.26;78.92
75891;BME280;64571;47.512;19.054;2023-12-04T04:42:50;101446.87;;;-2.40;78.49
75891;BME280;64571;47.512;19.054;2023-12-04T04:45:52;101447.53;;;-2.38;78.52
75891;BME280;64571;47.512;19.054;2023-12-04T04:48:55;101477.28;;;-2.21;79.15
75891;BME280;64571;47.512;19.054;2023-12-04T04:51:57;101471.28;;;-2.32;79.98
75891;BME280;64571;47.512;19.054;2023-12-04T04:55:00;101479.16;;;-2.37;80.87
75891;BME280;64571;47.512;19.054;2023-12-04T04:58:03;101450.22;;;-2.52;81.30
75891;BME280;64571;47.512;19.054;2023-12-04T05:01:06;101452.31;;;-2.40;82.28
75891;BME280;64571;47.512;19.054;2023-12-04T05:04:08;101473.81;;;-2.30;82.05
75891;BME280;64571;47.512;19.054;2023-12-04T05:07:11;101481.53;;;-2.34;81.70
75891;BME280;64571;47.512;19.054;2023-12-04T05:10:15;101483.38;;;-2.49;81.49
75891;BME280;64571;47.512;19.054;2023-12-04T05:13:17;101471.91;;;-2.59;81.32
75891;BME280;64571;47.512;19.054;2023-12-04T05:16:20;101487.41;;;-2.45;81.02
75891;BME280;64571;47.512;19.054;2023-12-04T05:19:22;101484.97;;;-2.40;80.77
75891;BME280;64571;47.512;19.054;2023-12-04T05:22:25;101492.09;;;-2.39;80.24
75891;BME280;64571;47.512;19.054;2023-12-04T05:25:27;101488.03;;;-2.58;80.81
75891;BME280;64571;47.512;19.054;2023-12-04T05:28:38;101482.03;;;-2.68;81.50
75891;BME280;64571;47.512;19.054;2023-12-04T05:31:41;101466.09;;;-2.94;82.06
75891;BME280;64571;47.512;19.054;2023-12-04T05:34:43;101490.50;;;-2.86;82.10
75891;BME280;64571;47.512;19.054;2023-12-04T05:37:46;101481.56;;;-2.94;82.74
75891;BME280;64571;47.512;19.054;2023-12-04T05:40:48;101480.25;;;-2.98;83.09
75891;BME280;64571;47.512;19.054;2023-12-04T05:43:51;101469.38;;;-2.98;83.46
75891;BME280;64571;47.512;19.054;2023-12-04T05:46:53;101480.97;;;-2.82;83.78
75891;BME280;64571;47.512;19.054;2023-12-04T05:49:56;101477.19;;;-2.81;83.86
75891;BME280;64571;47.512;19.054;2023-12-04T05:52:59;101486.50;;;-2.75;83.82
75891;BME280;64571;47.512;19.054;2023-12-04T05:56:01;101484.53;;;-2.66;83.58
75891;BME280;64571;47.512;19.054;2023-12-04T05:59:04;101459.78;;;-2.71;82.80
75891;BME280;64571;47.512;19.054;2023-12-04T06:02:07;101459.06;;;-2.65;83.32
75891;BME280;64571;47.512;19.054;2023-12-04T06:05:10;101491.37;;;-2.33;83.31
75891;BME280;64571;47.512;19.054;2023-12-04T06:08:12;101488.72;;;-2.41;83.01
75891;BME280;64571;47.512;19.054;2023-12-04T06:11:15;101495.75;;;-2.46;83.24
75891;BME280;64571;47.512;19.054;2023-12-04T06:14:18;101491.16;;;-2.46;83.17
75891;BME280;64571;47.512;19.054;2023-12-04T06:17:21;101486.72;;;-2.62;83.19
75891;BME280;64571;47.512;19.054;2023-12-04T06:20:23;101498.06;;;-2.58;83.27
75891;BME280;64571;47.512;19.054;2023-12-04T06:23:26;101497.72;;;-2.55;83.07
75891;BME280;64571;47.512;19.054;2023-12-04T06:26:29;101500.41;;;-2.70;83.13
75891;BME280;64571;47.512;19.054;2023-12-04T06:29:34;101469.09;;;-2.89;83.04
75891;BME280;64571;47.512;19.054;2023-12-04T06:32:37;101492.25;;;-2.70;83.05
75891;BME280;64571;47.512;19.054;2023-12-04T06:35:41;101503.72;;;-2.60;82.73
75891;BME280;64571;47.512;19.054;2023-12-04T06:38:46;101505.75;;;-2.62;82.38
75891;BME280;64571;47.512;19.054;2023-12-04T06:41:49;101506.69;;;-2.69;82.25
75891;BME280;64571;47.512;19.054;2023-12-04T06:44:52;101514.56;;;-2.74;81.84
75891;BME280;64571;47.512;19.054;2023-12-04T06:47:56;101515.41;;;-2.74;82.15
75891;BME280;64571;47.512;19.054;2023-12-04T06:50:58;101507.31;;;-2.82;82.69
75891;BME280;64571;47.512;19.054;2023-12-04T06:54:01;101494.06;;;-2.85;82.81
75891;BME280;64571;47.512;19.054;2023-12-04T06:57:04;101491.09;;;-2.75;82.45
75891;BME280;64571;47.512;19.054;2023-12-04T07:00:07;101516.47;;;-2.60;82.28
75891;BME280;64571;47.512;19.054;2023-12-04T07:03:23;101506.78;;;-2.63;82.44
75891;BME280;64571;47.512;19.054;2023-12-04T07:06:27;101519.28;;;-2.53;82.38
75891;BME280;64571;47.512;19.054;2023-12-04T07:09:29;101497.38;;;-2.52;82.56
75891;BME280;64571;47.512;19.054;2023-12-04T07:12:32;101505.13;;;-2.49;81.86
75891;BME280;64571;47.512;19.054;2023-12-04T07:15:34;101505.81;;;-2.47;81.16
75891;BME280;64571;47.512;19.054;2023-12-04T07:18:37;101525.06;;;-2.34;80.83
75891;BME280;64571;47.512;19.054;2023-12-04T07:21:40;101513.16;;;-2.33;80.61
75891;BME280;64571;47.512;19.054;2023-12-04T07:24:43;101502.62;;;-2.36;80.53
75891;BME280;64571;47.512;19.054;2023-12-04T07:27:45;101525.16;;;-2.12;80.97
75891;BME280;64571;47.512;19.054;2023-12-04T07:30:49;101522.47;;;-1.97;80.79
75891;BME280;64571;47.512;19.054;2023-12-04T07:33:53;101512.69;;;-1.92;80.59
75891;BME280;64571;47.512;19.054;2023-12-04T07:36:55;101510.88;;;-1.85;79.73
75891;BME280;64571;47.512;19.054;2023-12-04T07:39:58;101527.41;;;-1.71;79.39
75891;BME280;64571;47.512;19.054;2023-12-04T07:43:00;101528.00;;;-1.61;79.11
75891;BME280;64571;47.512;19.054;2023-12-04T07:46:03;101533.22;;;-1.45;78.02
75891;BME280;64571;47.512;19.054;2023-12-04T07:49:06;101507.50;;;-1.57;76.97
75891;BME280;64571;47.512;19.054;2023-12-04T07:52:08;101539.31;;;-1.43;76.59
75891;BME280;64571;47.512;19.054;2023-12-04T07:55:12;101535.19;;;-1.17;76.16
75891;BME280;64571;47.512;19.054;2023-12-04T07:58:14;101532.50;;;-0.96;75.85
75891;BME280;64571;47.512;19.054;2023-12-04T08:01:18;101531.34;;;-0.87;75.16
75891;BME280;64571;47.512;19.054;2023-12-04T08:04:20;101541.06;;;-0.78;74.71
75891;BME280;64571;47.512;19.054;2023-12-04T08:07:23;101528.87;;;-0.82;73.94
75891;BME280;64571;47.512;19.054;2023-12-04T08:10:25;101530.69;;;-0.67;73.96
75891;BME280;64571;47.512;19.054;2023-12-04T08:13:29;101513.28;;;-0.66;73.63
75891;BME280;64571;47.512;19.054;2023-12-04T08:16:31;101508.28;;;-0.84;73.48
75891;BME280;64571;47.512;19.054;2023-12-04T08:19:34;101510.12;;;-0.63;72.66
75891;BME280;64571;47.512;19.054;2023-12-04T08:22:36;101514.38;;;-0.61;72.76
75891;BME280;64571;47.512;19.054;2023-12-04T08:25:39;101535.97;;;-0.38;71.50
75891;BME280;64571;47.512;19.054;2023-12-04T08:28:42;101541.16;;;-0.21;71.10
75891;BME280;64571;47.512;19.054;2023-12-04T08:31:44;101524.91;;;-0.58;71.07
75891;BME280;64571;47.512;19.054;2023-12-04T08:34:47;101544.75;;;-0.42;71.53
75891;BME280;64571;47.512;19.054;2023-12-04T08:37:49;101524.19;;;-0.45;71.60
75891;BME280;64571;47.512;19.054;2023-12-04T08:40:53;101516.72;;;-0.79;71.51
75891;BME280;64571;47.512;19.054;2023-12-04T08:43:55;101537.06;;;-0.32;71.69
75891;BME280;64571;47.512;19.054;2023-12-04T08:46:58;101514.69;;;-0.21;71.02
75891;BME280;64571;47.512;19.054;2023-12-04T08:50:02;101531.00;;;0.01;70.07
75891;BME280;64571;47.512;19.054;2023-12-04T08:53:05;101532.72;;;-0.27;71.03
75891;BME280;64571;47.512;19.054;2023-12-04T08:56:08;101537.47;;;-0.35;71.33
75891;BME280;64571;47.512;19.054;2023-12-04T08:59:15;101521.03;;;-0.42;72.39
75891;BME280;64571;47.512;19.054;2023-12-04T09:02:19;101506.28;;;-0.47;72.49
75891;BME280;64571;47.512;19.054;2023-12-04T09:05:21;101532.63;;;-0.40;72.63
75891;BME280;64571;47.512;19.054;2023-12-04T09:08:24;101534.50;;;-0.40;72.40
75891;BME280;64571;47.512;19.054;2023-12-04T09:11:42;101516.88;;;-0.59;73.57
75891;BME280;64571;47.512;19.054;2023-12-04T09:14:45;101522.31;;;-0.66;73.82
75891;BME280;64571;47.512;19.054;2023-12-04T09:17:48;101538.81;;;-0.53;74.13
75891;BME280;64571;47.512;19.054;2023-12-04T09:20:50;101548.03;;;-0.54;74.34
75891;BME280;64571;47.512;19.054;2023-12-04T09:23:53;101519.97;;;-0.69;74.53
75891;BME280;64571;47.512;19.054;2023-12-04T09:26:55;101533.38;;;-0.46;74.03
75891;BME280;64571;47.512;19.054;2023-12-04T09:29:58;101512.34;;;-0.52;73.76
75891;BME280;64571;47.512;19.054;2023-12-04T09:33:00;101507.72;;;-0.52;72.97
75891;BME280;64571;47.512;19.054;2023-12-04T09:36:04;101511.16;;;-0.43;72.11
75891;BME280;64571;47.512;19.054;2023-12-04T09:39:06;101527.97;;;-0.11;72.13
75891;BME280;64571;47.512;19.054;2023-12-04T09:42:09;101514.34;;;-0.05;71.14
75891;BME280;64571;47.512;19.054;2023-12-04T09:45:13;101498.50;;;0.12;71.18
75891;BME280;64571;47.512;19.054;2023-12-04T09:48:16;101504.91;;;0.33;70.49
75891;BME280;64571;47.512;19.054;2023-12-04T09:51:20;101482.44;;;0.37;70.51
75891;BME280;64571;47.512;19.054;2023-12-04T09:54:23;101491.13;;;0.54;69.83
75891;BME280;64571;47.512;19.054;2023-12-04T09:57:28;101467.53;;;0.53;70.09
75891;BME280;64571;47.512;19.054;2023-12-04T10:00:32;101482.75;;;0.75;69.28
75891;BME280;64571;47.512;19.054;2023-12-04T10:03:35;101464.00;;;0.59;68.34
75891;BME280;64571;47.512;19.054;2023-12-04T10:06:38;101485.09;;;0.79;67.48
75891;BME280;64571;47.512;19.054;2023-12-04T10:09:41;101452.00;;;0.67;66.07
75891;BME280;64571;47.512;19.054;2023-12-04T10:12:44;101470.13;;;0.74;65.96
75891;BME280;64571;47.512;19.054;2023-12-04T10:15:48;101463.44;;;0.90;65.57
75891;BME280;64571;47.512;19.054;2023-12-04T10:18:51;101455.62;;;0.81;65.40
75891;BME280;64571;47.512;19.054;2023-12-04T10:21:55;101438.50;;;0.52;65.97
75891;BME280;64571;47.512;19.054;2023-12-04T10:24:58;101455.81;;;0.79;66.23
75891;BME280;64571;47.512;19.054;2023-12-04T10:28:11;101415.41;;;0.74;66.10
75891;BME280;64571;47.512;19.054;2023-12-04T10:31:17;101424.25;;;0.76;64.93
75891;BME280;64571;47.512;19.054;2023-12-04T10:34:20;101420.06;;;0.74;64.72
75891;BME280;64571;47.512;19.054;2023-12-04T10:37:23;101432.69;;;0.82;64.97
75891;BME280;64571;47.512;19.054;2023-12-04T10:40:32;101404.50;;;0.88;65.24
75891;BME280;64571;47.512;19.054;2023-12-04T10:43:36;101397.94;;;0.62;65.52
75891;BME280;64571;47.512;19.054;2023-12-04T10:46:50;101420.09;;;1.00;65.66
75891;BME280;64571;47.512;19.054;2023-12-04T10:49:53;101396.28;;;0.68;66.16
75891;BME280;64571;47.512;19.054;2023-12-04T10:52:56;101393.34;;;0.96;66.43
75891;BME280;64571;47.512;19.054;2023-12-04T10:56:00;101390.81;;;1.01;65.64
75891;BME280;64571;47.512;19.054;2023-12-04T10:59:10;101407.03;;;0.96;65.28
75891;BME280;64571;47.512;19.054;2023-12-04T11:02:19;101384.72;;;0.86;66.07
75891;BME280;64571;47.512;19.054;2023-12-04T11:05:24;101376.91;;;0.76;65.79
75891;BME280;64571;47.512;19.054;2023-12-04T11:08:33;101399.87;;;1.08;65.52
75891;BME280;64571;47.512;19.054;2023-12-04T11:11:40;101376.72;;;1.04;64.92
75891;BME280;64571;47.512;19.054;2023-12-04T11:14:53;101370.38;;;1.23;64.30
75891;BME280;64571;47.512;19.054;2023-12-04T11:17:59;101361.12;;;1.11;64.11
75891;BME280;64571;47.512;19.054;2023-12-04T11:21:08;101381.34;;;1.23;63.95
75891;BME280;64571;47.512;19.054;2023-12-04T11:24:12;101383.19;;;1.43;63.54
75891;BME280;64571;47.512;19.054;2023-12-04T11:27:16;101382.13;;;1.50;63.23
75891;BME280;64571;47.512;19.054;2023-12-04T11:30:20;101358.97;;;1.46;62.93
75891;BME280;64571;47.512;19.054;2023-12-04T11:33:22;101369.50;;;1.43;62.71
75891;BME280;64571;47.512;19.054;2023-12-04T11:36:25;101369.69;;;1.55;62.78
75891;BME280;64571;47.512;19.054;2023-12-04T11:39:28;101358.09;;;1.59;62.93
75891;BME280;64571;47.512;19.054;2023-12-04T11:42:31;101340.03;;;1.32;63.27
75891;BME280;64571;47.512;19.054;2023-12-04T11:45:39;101352.66;;;1.46;63.52
75891;BME280;64571;47.512;19.054;2023-12-04T11:48:43;101334.97;;;1.42;63.76
75891;BME280;64571;47.512;19.054;2023-12-04T11:51:45;101347.75;;;1.61;64.17
75891;BME280;64571;47.512;19.054;2023-12-04T11:58:09;101347.56;;;1.63;64.47
75891;BME280;64571;47.512;19.054;2023-12-04T12:01:12;101342.72;;;1.58;64.25
75891;BME280;64571;47.512;19.054;2023-12-04T12:04:15;101338.87;;;1.66;64.61
75891;BME280;64571;47.512;19.054;2023-12-04T12:07:20;101321.25;;;1.42;64.63
75891;BME280;64571;47.512;19.054;2023-12-04T12:10:23;101311.56;;;1.46;64.21
75891;BME280;64571;47.512;19.054;2023-12-04T12:13:25;101324.34;;;1.65;64.28
75891;BME280;64571;47.512;19.054;2023-12-04T12:16:31;101298.47;;;1.55;64.39
75891;BME280;64571;47.512;19.054;2023-12-04T12:19:34;101312.97;;;1.68;64.16
75891;BME280;64571;47.512;19.054;2023-12-04T12:22:38;101283.06;;;1.67;63.81
75891;BME280;64571;47.512;19.054;2023-12-04T12:25:43;101278.84;;;1.64;63.62
75891;BME280;64571;47.512;19.054;2023-12-04T12:28:46;101282.97;;;1.80;63.97
75891;BME280;64571;47.512;19.054;2023-12-04T12:31:49;101272.56;;;1.50;63.95
75891;BME280;64571;47.512;19.054;2023-12-04T12:34:53;101275.38;;;1.82;63.84
75891;BME280;64571;47.512;19.054;2023-12-04T12:37:58;101251.19;;;1.72;63.91
75891;BME280;64571;47.512;19.054;2023-12-04T12:41:00;101258.97;;;1.75;63.80
75891;BME280;64571;47.512;19.054;2023-12-04T12:44:03;101255.38;;;1.82;63.67
75891;BME280;64571;47.512;19.054;2023-12-04T12:47:06;101250.50;;;1.84;63.91
75891;BME280;64571;47.512;19.054;2023-12-04T12:50:09;101256.59;;;1.86;64.07
75891;BME280;64571;47.512;19.054;2023-12-04T12:53:17;101246.56;;;1.73;64.58
75891;BME280;64571;47.512;19.054;2023-12-04T12:56:21;101248.16;;;1.87;64.56
75891;BME280;64571;47.512;19.054;2023-12-04T12:59:24;101235.81;;;1.71;64.32
75891;BME280;64571;47.512;19.054;2023-12-04T13:02:27;101256.87;;;1.71;64.76
75891;BME280;64571;47.512;19.054;2023-12-04T13:05:29;101263.84;;;1.73;65.22
75891;BME280;64571;47.512;19.054;2023-12-04T13:08:32;101241.97;;;1.67;65.62
75891;BME280;64571;47.512;19.054;2023-12-04T13:11:35;101238.81;;;1.57;65.59
75891;BME280;64571;47.512;19.054;2023-12-04T13:14:38;101246.03;;;1.51;66.05
75891;BME280;64571;47.512;19.054;2023-12-04T13:17:41;101245.56;;;1.61;66.25
75891;BME280;64571;47.512;19.054;2023-12-04T13:20:44;101244.31;;;1.57;66.37
75891;BME280;64571;47.512;19.054;2023-12-04T13:23:47;101236.59;;;1.40;66.85
75891;BME280;64571;47.512;19.054;2023-12-04T13:26:49;101242.53;;;1.31;67.34
75891;BME280;64571;47.512;19.054;2023-12-04T13:29:52;101245.00;;;1.39;67.27
75891;BME280;64571;47.512;19.054;2023-12-04T13:32:54;101247.78;;;1.32;67.67
75891;BME280;64571;47.512;19.054;2023-12-04T13:35:57;101245.66;;;1.34;67.66
75891;BME280;64571;47.512;19.054;2023-12-04T13:39:00;101239.56;;;1.32;67.80
75891;BME280;64571;47.512;19.054;2023-12-04T13:42:03;101232.38;;;1.38;67.92
75891;BME280;64571;47.512;19.054;2023-12-04T13:45:24;101230.09;;;1.28;68.16
75891;BME280;64571;47.512;19.054;2023-12-04T13:48:27;101224.84;;;1.26;68.38
75891;BME280;64571;47.512;19.054;2023-12-04T13:51:29;101211.62;;;1.10;68.14
75891;BME280;64571;47.512;19.054;2023-12-04T13:54:32;101237.50;;;1.21;68.54
75891;BME280;64571;47.512;19.054;2023-12-04T13:57:47;101209.28;;;1.20;68.53
75891;BME280;64571;47.512;19.054;2023-12-04T14:01:15;101201.94;;;1.08;69.02
75891;BME280;64571;47.512;19.054;2023-12-04T14:04:25;101220.47;;;1.12;69.06
75891;BME280;64571;47.512;19.054;2023-12-04T14:07:28;101220.44;;;1.19;69.21
75891;BME280;64571;47.512;19.054;2023-12-04T14:10:31;101213.06;;;1.19;69.39
75891;BME280;64571;47.512;19.054;2023-12-04T14:13:35;101194.59;;;1.08;69.54
75891;BME280;64571;47.512;19.054;2023-12-04T14:16:38;101196.94;;;0.98;69.67
75891;BME280;64571;47.512;19.054;2023-12-04T14:19:41;101225.12;;;1.05;69.65
75891;BME280;64571;47.512;19.054;2023-12-04T14:22:45;101206.16;;;1.04;69.60
75891;BME280;64571;47.512;19.054;2023-12-04T14:25:50;101209.13;;;1.02;69.88
75891;BME280;64571;47.512;19.054;2023-12-04T14:28:53;101216.72;;;1.00;70.03
75891;BME280;64571;47.512;19.054;2023-12-04T14:31:56;101189.81;;;0.84;70.29
75891;BME280;64571;47.512;19.054;2023-12-04T14:34:59;101199.66;;;0.98;70.10
75891;BME280;64571;47.512;19.054;2023-12-04T14:38:03;101199.47;;;0.99;70.43
75891;BME280;64571;47.512;19.054;2023-12-04T14:41:07;101200.09;;;1.01;70.52
75891;BME280;64571;47.512;19.054;2023-12-04T14:44:11;101176.34;;;0.89;69.93
75891;BME280;64571;47.512;19.054;2023-12-04T14:47:14;101178.59;;;0.98;70.21
75891;BME280;64571;47.512;19.054;2023-12-04T14:50:16;101179.44;;;0.99;70.15
75891;BME280;64571;47.512;19.054;2023-12-04T14:53:19;101184.09;;;0.98;70.05
75891;BME280;64571;47.512;19.054;2023-12-04T14:56:33;101186.44;;;0.95;70.08
75891;BME280;64571;47.512;19.054;2023-12-04T14:59:39;101181.34;;;0.98;70.55
75891;BME280;64571;47.512;19.054;2023-12-04T15:02:59;101182.81;;;1.01;70.27
75891;BME280;64571;47.512;19.054;2023-12-04T15:06:05;101181.75;;;1.02;70.07
75891;BME280;64571;47.512;19.054;2023-12-04T15:09:14;101171.69;;;0.89;70.29
75891;BME280;64571;47.512;19.054;2023-12-04T15:12:43;101180.09;;;1.01;70.16
75891;BME280;64571;47.512;19.054;2023-12-04T15:16:04;101148.53;;;0.92;69.93
75891;BME280;64571;47.512;19.054;2023-12-04T15:19:16;101176.28;;;1.02;69.92
75891;BME280;64571;47.512;19.054;2023-12-04T15:22:37;101181.75;;;1.09;69.96
75891;BME280;64571;47.512;19.054;2023-12-04T15:25:40;101162.59;;;1.02;69.72
75891;BME280;64571;47.512;19.054;2023-12-04T15:28:43;101160.09;;;1.00;69.80
75891;BME280;64571;47.512;19.054;2023-12-04T15:31:47;101148.50;;;0.98;69.99
75891;BME280;64571;47.512;19.054;2023-12-04T15:34:50;101134.03;;;0.91;69.77
75891;BME280;64571;47.512;19.054;2023-12-04T15:37:53;101128.56;;;0.85;69.67
75891;BME280;64571;47.512;19.054;2023-12-04T15:40:55;101150.66;;;0.90;69.86
75891;BME280;64571;47.512;19.054;2023-12-04T15:44:00;101133.25;;;0.71;70.03
75891;BME280;64571;47.512;19.054;2023-12-04T15:47:03;101131.13;;;0.80;70.29
75891;BME280;64571;47.512;19.054;2023-12-04T15:50:07;101132.59;;;0.75;70.39
75891;BME280;64571;47.512;19.054;2023-12-04T15:53:10;101154.47;;;0.82;70.11
75891;BME280;64571;47.512;19.054;2023-12-04T15:56:12;101157.19;;;0.89;70.56